sensor_id;sensor_type;location;lat;lon;timestamp;pressure;altitude;pressure_sealevel;temperature;humidity
11499;BME280;5806;48.748;9.278;2023-08-21T00:02:03;101559.05;;;20.36;85.39
11499;BME280;5806;48.748;9.278;2023-08-21T00:04:31;101564.84;;;20.44;85.16
11499;BME280;5806;48.748;9.278;2023-08-21T00:07:00;101569.07;;;20.37;85.24
11499;BME280;5806;48.748;9.278;2023-08-21T00:09:27;101566.11;;;20.16;86.82
11499;BME280;5806;48.748;9.278;2023-08-21T00:11:55;101564.77;;;20.01;88.17
11499;BME280;5806;48.748;9.278;2023-08-21T00:14:23;101559.17;;;20.18;87.47
11499;BME280;5806;48.748;9.278;2023-08-21T00:16:50;101561.14;;;20.13;87.32
11499;BME280;5806;48.748;9.278;2023-08-21T00:19:18;101554.21;;;20.10;87.12
11499;BME280;5806;48.748;9.278;2023-08-21T00:21:46;101553.10;;;19.99;87.64
11499;BME280;5806;48.748;9.278;2023-08-21T00:24:14;101553.67;;;20.01;87.59
11499;BME280;5806;48.748;9.278;2023-08-21T00:26:42;101549.98;;;20.20;86.80
11499;BME280;5806;48.748;9.278;2023-08-21T00:29:09;101547.80;;;20.07;87.34
11499;BME280;5806;48.748;9.278;2023-08-21T00:31:37;101549.80;;;19.97;87.77
11499;BME280;5806;48.748;9.278;2023-08-21T00:34:04;101545.91;;;19.95;87.42
11499;BME280;5806;48.748;9.278;2023-08-21T00:36:32;101549.52;;;19.98;87.53
11499;BME280;5806;48.748;9.278;2023-08-21T00:38:59;101546.80;;;19.83;88.70
11499;BME280;5806;48.748;9.278;2023-08-21T00:41:27;101539.75;;;20.06;86.83
11499;BME280;5806;48.748;9.278;2023-08-21T00:43:55;101550.34;;;19.96;87.61
11499;BME280;5806;48.748;9.278;2023-08-21T00:46:22;101550.88;;;20.03;87.31
11499;BME280;5806;48.748;9.278;2023-08-21T00:48:50;101555.94;;;19.89;88.26
11499;BME280;5806;48.748;9.278;2023-08-21T00:51:17;101558.16;;;19.87;88.68
11499;BME280;5806;48.748;9.278;2023-08-21T00:53:46;101556.48;;;19.88;88.94
11499;BME280;5806;48.748;9.278;2023-08-21T00:56:13;101551.76;;;19.91;88.70
11499;BME280;5806;48.748;9.278;2023-08-21T00:58:43;101554.21;;;20.00;88.39
11499;BME280;5806;48.748;9.278;2023-08-21T01:01:12;101548.41;;;19.97;87.80
11499;BME280;5806;48.748;9.278;2023-08-21T01:03:42;101547.32;;;19.85;88.89
11499;BME280;5806;48.748;9.278;2023-08-21T01:06:10;101553.38;;;19.97;88.09
11499;BME280;5806;48.748;9.278;2023-08-21T01:08:57;101554.51;;;19.96;87.45
11499;BME280;5806;48.748;9.278;2023-08-21T01:20:10;101553.82;;;19.58;90.14
11499;BME280;5806;48.748;9.278;2023-08-21T01:22:42;101557.38;;;19.71;89.29
11499;BME280;5806;48.748;9.278;2023-08-21T01:25:12;101561.79;;;19.77;89.19
11499;BME280;5806;48.748;9.278;2023-08-21T01:27:47;101559.09;;;19.60;90.08
11499;BME280;5806;48.748;9.278;2023-08-21T01:30:16;101565.25;;;19.34;91.57
11499;BME280;5806;48.748;9.278;2023-08-21T01:33:02;101562.66;;;19.65;89.43
11499;BME280;5806;48.748;9.278;2023-08-21T01:35:31;101561.02;;;19.62;89.21
11499;BME280;5806;48.748;9.278;2023-08-21T01:38:02;101573.56;;;19.37;90.84
11499;BME280;5806;48.748;9.278;2023-08-21T01:40:29;101569.13;;;19.28;91.48
11499;BME280;5806;48.748;9.278;2023-08-21T01:42:57;101566.34;;;19.33;91.13
11499;BME280;5806;48.748;9.278;2023-08-21T01:45:25;101562.14;;;19.61;89.31
11499;BME280;5806;48.748;9.278;2023-08-21T01:47:53;101564.10;;;19.53;89.10
11499;BME280;5806;48.748;9.278;2023-08-21T01:50:20;101567.70;;;19.48;89.72
11499;BME280;5806;48.748;9.278;2023-08-21T01:52:48;101557.73;;;19.35;90.83
11499;BME280;5806;48.748;9.278;2023-08-21T01:55:15;101558.30;;;19.19;92.03
11499;BME280;5806;48.748;9.278;2023-08-21T01:57:43;101559.94;;;19.22;91.65
11499;BME280;5806;48.748;9.278;2023-08-21T02:00:11;101566.64;;;19.32;91.19
11499;BME280;5806;48.748;9.278;2023-08-21T02:02:39;101561.05;;;19.44;90.65
11499;BME280;5806;48.748;9.278;2023-08-21T02:05:07;101566.32;;;19.56;89.58
11499;BME280;5806;48.748;9.278;2023-08-21T02:07:35;101562.98;;;19.51;89.59
11499;BME280;5806;48.748;9.278;2023-08-21T02:10:02;101556.05;;;19.41;91.13
11499;BME280;5806;48.748;9.278;2023-08-21T02:15:52;101562.67;;;19.63;89.49
11499;BME280;5806;48.748;9.278;2023-08-21T02:18:19;101559.94;;;19.45;90.70
11499;BME280;5806;48.748;9.278;2023-08-21T02:20:50;101563.01;;;19.46;90.18
11499;BME280;5806;48.748;9.278;2023-08-21T02:23:22;101562.16;;;19.48;90.30
11499;BME280;5806;48.748;9.278;2023-08-21T02:25:52;101570.77;;;19.42;91.13
11499;BME280;5806;48.748;9.278;2023-08-21T02:28:19;101572.70;;;19.51;90.07
11499;BME280;5806;48.748;9.278;2023-08-21T02:30:47;101567.20;;;19.24;92.02
11499;BME280;5806;48.748;9.278;2023-08-21T02:33:14;101564.14;;;19.33;91.69
11499;BME280;5806;48.748;9.278;2023-08-21T02:35:42;101562.73;;;19.38;90.81
11499;BME280;5806;48.748;9.278;2023-08-21T02:44:53;101554.42;;;19.10;92.86
11499;BME280;5806;48.748;9.278;2023-08-21T02:47:21;101558.30;;;19.16;92.20
11499;BME280;5806;48.748;9.278;2023-08-21T02:55:43;101553.03;;;19.35;90.79
11499;BME280;5806;48.748;9.278;2023-08-21T02:58:11;101553.86;;;19.28;91.59
11499;BME280;5806;48.748;9.278;2023-08-21T03:00:38;101552.19;;;19.45;90.20
11499;BME280;5806;48.748;9.278;2023-08-21T03:03:06;101545.53;;;19.31;90.56
11499;BME280;5806;48.748;9.278;2023-08-21T03:05:51;101549.44;;;19.27;91.14
11499;BME280;5806;48.748;9.278;2023-08-21T03:08:19;101544.98;;;19.34;90.61
11499;BME280;5806;48.748;9.278;2023-08-21T03:10:46;101549.98;;;19.37;90.42
11499;BME280;5806;48.748;9.278;2023-08-21T03:13:17;101547.48;;;19.02;93.00
11499;BME280;5806;48.748;9.278;2023-08-21T03:15:45;101543.05;;;19.24;91.74
11499;BME280;5806;48.748;9.278;2023-08-21T03:18:12;101554.69;;;19.36;91.52
11499;BME280;5806;48.748;9.278;2023-08-21T03:20:44;101558.03;;;19.38;91.10
11499;BME280;5806;48.748;9.278;2023-08-21T03:23:13;101549.13;;;19.39;90.50
11499;BME280;5806;48.748;9.278;2023-08-21T03:25:40;101548.89;;;19.30;91.05
11499;BME280;5806;48.748;9.278;2023-08-21T03:28:08;101551.08;;;19.31;91.45
11499;BME280;5806;48.748;9.278;2023-08-21T03:30:38;101545.55;;;19.28;91.43
11499;BME280;5806;48.748;9.278;2023-08-21T03:33:05;101549.41;;;19.45;90.51
11499;BME280;5806;48.748;9.278;2023-08-21T03:35:33;101550.80;;;19.42;90.41
11499;BME280;5806;48.748;9.278;2023-08-21T03:38:01;101549.41;;;19.35;91.71
11499;BME280;5806;48.748;9.278;2023-08-21T03:40:28;101547.74;;;19.39;90.82
11499;BME280;5806;48.748;9.278;2023-08-21T03:42:55;101543.30;;;19.40;90.24
11499;BME280;5806;48.748;9.278;2023-08-21T03:45:23;101534.73;;;19.32;90.21
11499;BME280;5806;48.748;9.278;2023-08-21T03:47:50;101536.40;;;19.10;92.85
11499;BME280;5806;48.748;9.278;2023-08-21T03:50:18;101531.15;;;19.24;91.62
11499;BME280;5806;48.748;9.278;2023-08-21T03:52:45;101531.11;;;19.36;91.28
11499;BME280;5806;48.748;9.278;2023-08-21T03:55:13;101531.36;;;19.47;89.54
11499;BME280;5806;48.748;9.278;2023-08-21T03:57:40;101535.81;;;19.43;90.07
11499;BME280;5806;48.748;9.278;2023-08-21T04:00:09;101534.44;;;19.41;89.69
11499;BME280;5806;48.748;9.278;2023-08-21T04:02:36;101535.84;;;19.26;91.21
11499;BME280;5806;48.748;9.278;2023-08-21T04:05:04;101534.72;;;19.27;90.80
11499;BME280;5806;48.748;9.278;2023-08-21T04:07:31;101541.92;;;19.38;90.41
11499;BME280;5806;48.748;9.278;2023-08-21T04:09:59;101537.50;;;19.34;90.15
11499;BME280;5806;48.748;9.278;2023-08-21T04:12:26;101540.28;;;19.24;91.13
11499;BME280;5806;48.748;9.278;2023-08-21T04:14:55;101538.05;;;19.11;92.09
11499;BME280;5806;48.748;9.278;2023-08-21T04:17:23;101536.11;;;19.04;92.79
11499;BME280;5806;48.748;9.278;2023-08-21T04:19:51;101555.53;;;19.27;91.22
11499;BME280;5806;48.748;9.278;2023-08-21T04:22:19;101555.23;;;19.43;90.24
11499;BME280;5806;48.748;9.278;2023-08-21T04:24:46;101551.03;;;19.53;90.15
11499;BME280;5806;48.748;9.278;2023-08-21T04:27:14;101558.84;;;19.46;90.54
11499;BME280;5806;48.748;9.278;2023-08-21T04:29:41;101533.62;;;19.33;90.38
11499;BME280;5806;48.748;9.278;2023-08-21T04:32:09;101546.93;;;19.28;92.35
11499;BME280;5806;48.748;9.278;2023-08-21T04:34:36;101544.71;;;19.12;93.47
11499;BME280;5806;48.748;9.278;2023-08-21T04:37:04;101541.39;;;19.03;93.61
11499;BME280;5806;48.748;9.278;2023-08-21T04:39:31;101539.73;;;19.17;92.17
11499;BME280;5806;48.748;9.278;2023-08-21T04:41:59;101547.19;;;19.21;91.32
11499;BME280;5806;48.748;9.278;2023-08-21T04:44:26;101553.31;;;19.34;90.93
11499;BME280;5806;48.748;9.278;2023-08-21T04:46:54;101549.16;;;19.29;90.74
11499;BME280;5806;48.748;9.278;2023-08-21T04:49:21;101555.55;;;19.32;90.97
11499;BME280;5806;48.748;9.278;2023-08-21T04:51:49;101553.02;;;19.02;92.63
11499;BME280;5806;48.748;9.278;2023-08-21T04:54:18;101557.19;;;18.97;93.32
11499;BME280;5806;48.748;9.278;2023-08-21T04:56:45;101556.91;;;19.16;92.36
11499;BME280;5806;48.748;9.278;2023-08-21T04:59:13;101557.74;;;19.32;91.37
11499;BME280;5806;48.748;9.278;2023-08-21T05:01:40;101562.45;;;19.29;90.97
11499;BME280;5806;48.748;9.278;2023-08-21T05:04:08;101566.92;;;19.30;90.46
11499;BME280;5806;48.748;9.278;2023-08-21T05:06:35;101564.97;;;19.28;90.84
11499;BME280;5806;48.748;9.278;2023-08-21T05:09:03;101569.67;;;19.25;90.83
11499;BME280;5806;48.748;9.278;2023-08-21T05:11:30;101562.72;;;19.20;91.69
11499;BME280;5806;48.748;9.278;2023-08-21T05:13:58;101576.89;;;19.31;91.28
11499;BME280;5806;48.748;9.278;2023-08-21T05:16:25;101575.20;;;19.20;92.03
11499;BME280;5806;48.748;9.278;2023-08-21T05:18:53;101573.28;;;19.28;91.14
11499;BME280;5806;48.748;9.278;2023-08-21T05:21:20;101579.95;;;19.27;91.39
11499;BME280;5806;48.748;9.278;2023-08-21T05:23:49;101578.83;;;19.28;91.97
11499;BME280;5806;48.748;9.278;2023-08-21T05:26:16;101584.95;;;19.30;91.85
11499;BME280;5806;48.748;9.278;2023-08-21T05:28:44;101593.55;;;19.29;92.11
11499;BME280;5806;48.748;9.278;2023-08-21T05:31:12;101593.53;;;19.21;91.93
11499;BME280;5806;48.748;9.278;2023-08-21T05:33:39;101589.65;;;18.99;94.50
11499;BME280;5806;48.748;9.278;2023-08-21T05:36:07;101592.69;;;19.00;93.99
11499;BME280;5806;48.748;9.278;2023-08-21T05:38:34;101591.30;;;18.98;94.38
11499;BME280;5806;48.748;9.278;2023-08-21T05:41:02;101587.14;;;18.98;94.21
11499;BME280;5806;48.748;9.278;2023-08-21T05:43:29;101588.80;;;19.19;93.25
11499;BME280;5806;48.748;9.278;2023-08-21T05:45:57;101588.25;;;19.35;91.80
11499;BME280;5806;48.748;9.278;2023-08-21T05:48:24;101582.98;;;19.43;92.10
11499;BME280;5806;48.748;9.278;2023-08-21T05:51:10;101582.13;;;19.45;91.66
11499;BME280;5806;48.748;9.278;2023-08-21T05:53:39;101582.44;;;19.44;92.45
11499;BME280;5806;48.748;9.278;2023-08-21T05:59:30;101584.64;;;19.54;92.43
11499;BME280;5806;48.748;9.278;2023-08-21T06:01:58;101592.68;;;19.48;92.61
11499;BME280;5806;48.748;9.278;2023-08-21T06:04:26;101597.40;;;19.53;92.79
11499;BME280;5806;48.748;9.278;2023-08-21T06:07:00;101595.72;;;19.59;92.45
11499;BME280;5806;48.748;9.278;2023-08-21T06:12:52;101602.36;;;19.68;92.09
11499;BME280;5806;48.748;9.278;2023-08-21T06:15:19;101599.87;;;19.72;92.05
11499;BME280;5806;48.748;9.278;2023-08-21T06:21:00;101607.06;;;19.75;93.15
11499;BME280;5806;48.748;9.278;2023-08-21T06:30:29;101603.36;;;20.05;92.32
11499;BME280;5806;48.748;9.278;2023-08-21T06:43:25;101611.67;;;20.68;89.72
11499;BME280;5806;48.748;9.278;2023-08-21T06:49:42;101615.66;;;20.98;85.79
11499;BME280;5806;48.748;9.278;2023-08-21T06:52:10;101614.53;;;21.02;86.01
11499;BME280;5806;48.748;9.278;2023-08-21T06:55:11;101612.53;;;21.10;85.90
11499;BME280;5806;48.748;9.278;2023-08-21T07:01:01;101611.08;;;21.15;84.40
11499;BME280;5806;48.748;9.278;2023-08-21T07:06:29;101608.41;;;21.33;83.00
11499;BME280;5806;48.748;9.278;2023-08-21T07:19:17;101595.86;;;21.36;85.72
11499;BME280;5806;48.748;9.278;2023-08-21T07:21:44;101595.47;;;21.50;84.42
11499;BME280;5806;48.748;9.278;2023-08-21T07:24:12;101600.42;;;21.55;84.29
11499;BME280;5806;48.748;9.278;2023-08-21T07:30:03;101604.52;;;21.63;83.90
11499;BME280;5806;48.748;9.278;2023-08-21T07:32:31;101603.64;;;21.65;84.04
11499;BME280;5806;48.748;9.278;2023-08-21T07:34:59;101603.61;;;21.72;83.27
11499;BME280;5806;48.748;9.278;2023-08-21T07:37:29;101603.48;;;21.82;82.92
11499;BME280;5806;48.748;9.278;2023-08-21T08:12:47;101611.34;;;22.48;80.85
11499;BME280;5806;48.748;9.278;2023-08-21T08:18:36;101616.08;;;22.48;80.38
11499;BME280;5806;48.748;9.278;2023-08-21T08:21:06;101617.86;;;22.60;80.33
11499;BME280;5806;48.748;9.278;2023-08-21T08:23:36;101616.05;;;22.69;80.04
11499;BME280;5806;48.748;9.278;2023-08-21T08:26:04;101591.36;;;22.60;81.05
11499;BME280;5806;48.748;9.278;2023-08-21T08:28:32;101619.34;;;22.73;80.09
11499;BME280;5806;48.748;9.278;2023-08-21T08:30:59;101618.70;;;22.79;79.00
11499;BME280;5806;48.748;9.278;2023-08-21T08:33:27;101618.50;;;22.73;78.46
11499;BME280;5806;48.748;9.278;2023-08-21T08:35:56;101618.12;;;22.79;78.43
11499;BME280;5806;48.748;9.278;2023-08-21T08:38:23;101617.05;;;22.96;78.57
11499;BME280;5806;48.748;9.278;2023-08-21T08:43:18;101615.78;;;22.86;78.04
11499;BME280;5806;48.748;9.278;2023-08-21T08:45:47;101612.85;;;22.96;78.78
11499;BME280;5806;48.748;9.278;2023-08-21T08:48:17;101608.33;;;23.00;78.25
11499;BME280;5806;48.748;9.278;2023-08-21T08:50:46;101607.94;;;23.07;77.61
11499;BME280;5806;48.748;9.278;2023-08-21T08:53:15;101603.42;;;23.08;76.60
11499;BME280;5806;48.748;9.278;2023-08-21T08:55:43;101604.39;;;23.01;77.58
11499;BME280;5806;48.748;9.278;2023-08-21T08:58:12;101594.97;;;22.97;78.59
11499;BME280;5806;48.748;9.278;2023-08-21T09:00:40;101598.52;;;23.19;77.03
11499;BME280;5806;48.748;9.278;2023-08-21T09:03:08;101601.46;;;23.27;77.33
11499;BME280;5806;48.748;9.278;2023-08-21T09:05:36;101602.51;;;23.31;75.92
11499;BME280;5806;48.748;9.278;2023-08-21T09:10:41;101605.52;;;23.16;78.17
11499;BME280;5806;48.748;9.278;2023-08-21T09:13:12;101602.06;;;23.24;76.83
11499;BME280;5806;48.748;9.278;2023-08-21T09:15:42;101597.92;;;23.22;77.67
11499;BME280;5806;48.748;9.278;2023-08-21T09:18:11;101603.60;;;23.33;75.78
11499;BME280;5806;48.748;9.278;2023-08-21T09:20:40;101607.64;;;23.40;75.48
11499;BME280;5806;48.748;9.278;2023-08-21T09:23:16;101608.73;;;23.42;76.63
11499;BME280;5806;48.748;9.278;2023-08-21T09:25:48;101615.52;;;23.38;77.24
11499;BME280;5806;48.748;9.278;2023-08-21T09:28:20;101614.98;;;23.36;75.59
11499;BME280;5806;48.748;9.278;2023-08-21T09:30:50;101611.23;;;23.27;76.03
11499;BME280;5806;48.748;9.278;2023-08-21T09:33:24;101610.79;;;23.36;74.88
11499;BME280;5806;48.748;9.278;2023-08-21T09:35:53;101614.56;;;23.46;74.75
11499;BME280;5806;48.748;9.278;2023-08-21T09:38:21;101605.64;;;23.43;73.76
11499;BME280;5806;48.748;9.278;2023-08-21T09:40:53;101608.84;;;23.37;74.77
11499;BME280;5806;48.748;9.278;2023-08-21T09:43:24;101609.63;;;23.40;74.01
11499;BME280;5806;48.748;9.278;2023-08-21T09:45:54;101606.39;;;23.33;76.46
11499;BME280;5806;48.748;9.278;2023-08-21T09:48:25;101609.38;;;23.53;75.49
11499;BME280;5806;48.748;9.278;2023-08-21T09:50:55;101614.41;;;23.53;74.44
11499;BME280;5806;48.748;9.278;2023-08-21T09:53:23;101605.12;;;23.58;74.47
11499;BME280;5806;48.748;9.278;2023-08-21T09:55:54;101602.05;;;23.57;71.07
11499;BME280;5806;48.748;9.278;2023-08-21T09:58:22;101601.00;;;23.39;74.34
11499;BME280;5806;48.748;9.278;2023-08-21T10:00:51;101602.48;;;23.64;72.21
11499;BME280;5806;48.748;9.278;2023-08-21T10:03:21;101601.70;;;23.61;71.57
11499;BME280;5806;48.748;9.278;2023-08-21T10:05:50;101601.44;;;23.60;73.19
11499;BME280;5806;48.748;9.278;2023-08-21T10:08:21;101601.62;;;23.66;73.55
11499;BME280;5806;48.748;9.278;2023-08-21T10:10:48;101599.13;;;23.64;73.48
11499;BME280;5806;48.748;9.278;2023-08-21T10:13:16;101595.00;;;23.89;69.77
11499;BME280;5806;48.748;9.278;2023-08-21T10:15:46;101598.69;;;23.87;73.38
11499;BME280;5806;48.748;9.278;2023-08-21T10:18:29;101593.34;;;24.04;71.01
11499;BME280;5806;48.748;9.278;2023-08-21T10:20:51;101594.37;;;23.94;71.36
11499;BME280;5806;48.748;9.278;2023-08-21T10:23:30;101595.28;;;23.90;73.91
11499;BME280;5806;48.748;9.278;2023-08-21T10:25:59;101590.48;;;24.06;71.16
11499;BME280;5806;48.748;9.278;2023-08-21T10:28:55;101587.44;;;24.05;73.11
11499;BME280;5806;48.748;9.278;2023-08-21T10:31:33;101593.14;;;24.00;72.17
11499;BME280;5806;48.748;9.278;2023-08-21T10:34:04;101587.33;;;23.97;71.96
11499;BME280;5806;48.748;9.278;2023-08-21T10:39:22;101583.41;;;23.98;73.11
11499;BME280;5806;48.748;9.278;2023-08-21T10:41:58;101582.88;;;23.96;72.80
11499;BME280;5806;48.748;9.278;2023-08-21T10:47:32;101576.75;;;24.21;69.13
11499;BME280;5806;48.748;9.278;2023-08-21T10:50:04;101580.89;;;24.23;70.03
11499;BME280;5806;48.748;9.278;2023-08-21T10:52:36;101585.29;;;24.40;69.32
11499;BME280;5806;48.748;9.278;2023-08-21T10:55:05;101588.72;;;24.62;68.06
11499;BME280;5806;48.748;9.278;2023-08-21T10:57:33;101587.22;;;24.78;70.53
11499;BME280;5806;48.748;9.278;2023-08-21T11:00:09;101586.61;;;24.56;71.18
11499;BME280;5806;48.748;9.278;2023-08-21T11:02:42;101583.05;;;24.40;70.07
11499;BME280;5806;48.748;9.278;2023-08-21T11:05:10;101582.06;;;24.47;68.54
11499;BME280;5806;48.748;9.278;2023-08-21T11:07:43;101576.03;;;24.78;67.54
11499;BME280;5806;48.748;9.278;2023-08-21T11:10:13;101572.82;;;24.84;68.90
11499;BME280;5806;48.748;9.278;2023-08-21T11:12:55;101589.11;;;24.93;67.54
11499;BME280;5806;48.748;9.278;2023-08-21T11:15:26;101581.64;;;24.89;67.14
11499;BME280;5806;48.748;9.278;2023-08-21T11:18:01;101583.74;;;24.72;68.03
11499;BME280;5806;48.748;9.278;2023-08-21T11:20:34;101579.08;;;24.68;68.77
11499;BME280;5806;48.748;9.278;2023-08-21T11:23:04;101582.40;;;24.81;69.08
11499;BME280;5806;48.748;9.278;2023-08-21T11:25:35;101583.22;;;24.70;67.92
11499;BME280;5806;48.748;9.278;2023-08-21T11:28:03;101582.55;;;24.87;67.64
11499;BME280;5806;48.748;9.278;2023-08-21T11:30:35;101580.64;;;24.96;67.55
11499;BME280;5806;48.748;9.278;2023-08-21T11:33:09;101584.27;;;24.85;68.06
11499;BME280;5806;48.748;9.278;2023-08-21T11:35:39;101577.31;;;24.94;68.44
11499;BME280;5806;48.748;9.278;2023-08-21T11:38:16;101576.30;;;24.90;68.14
11499;BME280;5806;48.748;9.278;2023-08-21T11:40:57;101581.66;;;25.00;67.00
11499;BME280;5806;48.748;9.278;2023-08-21T11:43:20;101586.30;;;25.15;67.21
11499;BME280;5806;48.748;9.278;2023-08-21T11:45:47;101584.33;;;25.49;64.46
11499;BME280;5806;48.748;9.278;2023-08-21T11:48:15;101581.19;;;25.31;64.05
11499;BME280;5806;48.748;9.278;2023-08-21T11:50:43;101582.86;;;25.07;68.53
11499;BME280;5806;48.748;9.278;2023-08-21T11:53:10;101586.86;;;24.93;67.95
11499;BME280;5806;48.748;9.278;2023-08-21T11:55:39;101581.97;;;24.76;70.56
11499;BME280;5806;48.748;9.278;2023-08-21T11:58:06;101581.38;;;24.77;68.82
11499;BME280;5806;48.748;9.278;2023-08-21T12:00:34;101585.84;;;24.89;67.00
11499;BME280;5806;48.748;9.278;2023-08-21T12:03:01;101573.97;;;25.05;65.45
11499;BME280;5806;48.748;9.278;2023-08-21T12:05:31;101585.14;;;25.16;66.70
11499;BME280;5806;48.748;9.278;2023-08-21T12:07:59;101580.52;;;25.34;63.09
11499;BME280;5806;48.748;9.278;2023-08-21T12:10:28;101583.95;;;25.42;63.45
11499;BME280;5806;48.748;9.278;2023-08-21T12:12:56;101582.06;;;25.40;63.36
11499;BME280;5806;48.748;9.278;2023-08-21T12:15:24;101577.79;;;25.31;63.34
11499;BME280;5806;48.748;9.278;2023-08-21T12:17:51;101580.14;;;25.27;65.64
11499;BME280;5806;48.748;9.278;2023-08-21T12:20:19;101581.22;;;25.17;66.31
11499;BME280;5806;48.748;9.278;2023-08-21T12:22:46;101572.86;;;25.26;62.82
11499;BME280;5806;48.748;9.278;2023-08-21T12:25:14;101570.08;;;25.37;63.59
11499;BME280;5806;48.748;9.278;2023-08-21T12:27:42;101569.14;;;25.30;64.17
11499;BME280;5806;48.748;9.278;2023-08-21T12:30:10;101568.41;;;25.25;63.77
11499;BME280;5806;48.748;9.278;2023-08-21T12:32:37;101561.30;;;25.19;62.14
11499;BME280;5806;48.748;9.278;2023-08-21T12:35:07;101562.87;;;25.11;63.50
11499;BME280;5806;48.748;9.278;2023-08-21T12:37:36;101557.30;;;25.33;63.23
11499;BME280;5806;48.748;9.278;2023-08-21T12:40:04;101556.83;;;25.51;63.82
11499;BME280;5806;48.748;9.278;2023-08-21T12:42:32;101557.17;;;25.58;62.18
11499;BME280;5806;48.748;9.278;2023-08-21T12:44:59;101553.26;;;25.87;59.54
11499;BME280;5806;48.748;9.278;2023-08-21T12:47:26;101558.70;;;25.83;58.94
11499;BME280;5806;48.748;9.278;2023-08-21T12:49:54;101558.80;;;25.70;59.69
11499;BME280;5806;48.748;9.278;2023-08-21T12:52:21;101549.14;;;25.65;58.04
11499;BME280;5806;48.748;9.278;2023-08-21T12:54:49;101547.48;;;25.83;58.36
11499;BME280;5806;48.748;9.278;2023-08-21T12:57:16;101546.56;;;25.96;57.92
11499;BME280;5806;48.748;9.278;2023-08-21T12:59:43;101544.70;;;25.64;59.52
11499;BME280;5806;48.748;9.278;2023-08-21T13:02:11;101545.18;;;25.66;60.54
11499;BME280;5806;48.748;9.278;2023-08-21T13:04:38;101544.15;;;25.73;60.79
11499;BME280;5806;48.748;9.278;2023-08-21T13:07:06;101543.06;;;25.71;61.81
11499;BME280;5806;48.748;9.278;2023-08-21T13:09:33;101530.98;;;25.73;60.25
11499;BME280;5806;48.748;9.278;2023-08-21T13:12:01;101541.64;;;25.91;58.94
11499;BME280;5806;48.748;9.278;2023-08-21T13:14:29;101535.79;;;26.01;58.10
11499;BME280;5806;48.748;9.278;2023-08-21T13:16:56;101535.88;;;25.87;59.44
11499;BME280;5806;48.748;9.278;2023-08-21T13:19:23;101536.44;;;25.87;60.48
11499;BME280;5806;48.748;9.278;2023-08-21T13:21:51;101534.58;;;26.13;58.44
11499;BME280;5806;48.748;9.278;2023-08-21T13:24:20;101547.41;;;25.86;59.01
11499;BME280;5806;48.748;9.278;2023-08-21T13:26:48;101545.16;;;25.77;57.21
11499;BME280;5806;48.748;9.278;2023-08-21T13:29:15;101535.55;;;26.00;56.34
11499;BME280;5806;48.748;9.278;2023-08-21T13:31:42;101538.36;;;25.89;58.27
11499;BME280;5806;48.748;9.278;2023-08-21T13:34:10;101532.19;;;25.89;58.62
11499;BME280;5806;48.748;9.278;2023-08-21T13:36:38;101532.30;;;25.95;58.34
11499;BME280;5806;48.748;9.278;2023-08-21T13:39:05;101540.83;;;26.01;57.39
11499;BME280;5806;48.748;9.278;2023-08-21T13:41:34;101543.35;;;26.20;57.34
11499;BME280;5806;48.748;9.278;2023-08-21T13:44:02;101538.11;;;26.07;56.73
11499;BME280;5806;48.748;9.278;2023-08-21T13:46:29;101528.23;;;25.90;58.20
11499;BME280;5806;48.748;9.278;2023-08-21T13:48:57;101535.31;;;25.88;58.30
11499;BME280;5806;48.748;9.278;2023-08-21T13:51:25;101525.61;;;26.13;55.15
11499;BME280;5806;48.748;9.278;2023-08-21T13:53:53;101521.77;;;25.81;55.73
11499;BME280;5806;48.748;9.278;2023-08-21T13:56:20;101524.09;;;26.07;55.26
11499;BME280;5806;48.748;9.278;2023-08-21T13:58:48;101524.81;;;26.02;54.19
11499;BME280;5806;48.748;9.278;2023-08-21T14:01:15;101517.00;;;26.10;53.96
11499;BME280;5806;48.748;9.278;2023-08-21T14:03:42;101512.52;;;26.00;54.48
11499;BME280;5806;48.748;9.278;2023-08-21T14:06:10;101518.98;;;25.90;54.55
11499;BME280;5806;48.748;9.278;2023-08-21T14:08:38;101518.80;;;26.06;53.35
11499;BME280;5806;48.748;9.278;2023-08-21T14:11:06;101513.20;;;25.97;53.48
11499;BME280;5806;48.748;9.278;2023-08-21T14:13:33;101507.63;;;26.14;54.13
11499;BME280;5806;48.748;9.278;2023-08-21T14:16:00;101504.37;;;26.10;54.87
11499;BME280;5806;48.748;9.278;2023-08-21T14:18:28;101505.48;;;26.28;55.96
11499;BME280;5806;48.748;9.278;2023-08-21T14:20:55;101502.29;;;26.41;54.57
11499;BME280;5806;48.748;9.278;2023-08-21T14:23:23;101499.55;;;26.21;53.93
11499;BME280;5806;48.748;9.278;2023-08-21T14:25:50;101508.37;;;26.26;55.12
11499;BME280;5806;48.748;9.278;2023-08-21T14:28:18;101499.47;;;26.24;56.21
11499;BME280;5806;48.748;9.278;2023-08-21T14:30:45;101497.80;;;26.23;56.18
11499;BME280;5806;48.748;9.278;2023-08-21T14:33:13;101494.48;;;26.04;57.94
11499;BME280;5806;48.748;9.278;2023-08-21T14:35:41;101493.98;;;26.02;57.75
11499;BME280;5806;48.748;9.278;2023-08-21T14:38:08;101485.72;;;25.97;56.97
11499;BME280;5806;48.748;9.278;2023-08-21T14:40:35;101486.75;;;26.09;55.46
11499;BME280;5806;48.748;9.278;2023-08-21T14:43:03;101488.73;;;26.26;54.94
11499;BME280;5806;48.748;9.278;2023-08-21T14:45:30;101491.79;;;26.18;57.09
11499;BME280;5806;48.748;9.278;2023-08-21T14:47:58;101487.96;;;26.06;56.67
11499;BME280;5806;48.748;9.278;2023-08-21T14:50:25;101490.41;;;25.99;55.68
11499;BME280;5806;48.748;9.278;2023-08-21T14:52:53;101491.42;;;25.83;55.91
11499;BME280;5806;48.748;9.278;2023-08-21T14:55:21;101484.92;;;26.05;55.52
11499;BME280;5806;48.748;9.278;2023-08-21T14:57:48;101481.36;;;26.02;56.01
11499;BME280;5806;48.748;9.278;2023-08-21T15:00:16;101482.68;;;25.96;56.33
11499;BME280;5806;48.748;9.278;2023-08-21T15:02:46;101483.73;;;25.78;56.51
11499;BME280;5806;48.748;9.278;2023-08-21T15:05:13;101478.56;;;25.82;56.38
11499;BME280;5806;48.748;9.278;2023-08-21T15:07:42;101478.66;;;25.88;56.92
11499;BME280;5806;48.748;9.278;2023-08-21T15:10:10;101475.99;;;26.03;56.22
11499;BME280;5806;48.748;9.278;2023-08-21T15:12:37;101470.66;;;26.04;54.99